createdAt,value
2017-12-04T00:01:00.929Z,27.50
2017-12-04T00:02:04.558Z,30.00
2017-12-04T00:03:07.616Z,30.00
2017-12-04T00:04:11.156Z,27.00
2017-12-04T00:05:14.652Z,28.50
2017-12-04T00:06:17.866Z,27.00
2017-12-04T00:07:21.274Z,25.00
2017-12-04T00:08:24.931Z,24.00
2017-12-04T00:09:27.872Z,26.00
2017-12-04T00:10:30.797Z,23.50
2017-12-04T00:11:33.793Z,27.50
2017-12-04T00:12:37.075Z,30.50
2017-12-04T00:13:41.853Z,27.00
2017-12-04T00:14:45.051Z,26.50
2017-12-04T00:15:47.934Z,22.00
2017-12-04T00:16:50.859Z,27.00
2017-12-04T00:17:53.978Z,26.50
2017-12-04T00:18:57.202Z,27.00
2017-12-04T00:20:00.942Z,23.00
2017-12-04T00:21:04.249Z,22.50
2017-12-04T00:22:07.623Z,24.00
2017-12-04T00:23:11.045Z,24.00
2017-12-04T00:24:14.167Z,23.00
2017-12-04T00:25:17.136Z,27.00
2017-12-04T00:26:20.275Z,27.00
2017-12-04T00:27:24.865Z,20.50
2017-12-04T00:28:27.952Z,27.00
2017-12-04T00:29:31.157Z,23.50
2017-12-04T00:30:34.166Z,22.00
2017-12-04T00:31:37.108Z,20.00
2017-12-04T00:32:40.094Z,27.50
2017-12-04T00:33:43.408Z,28.50
2017-12-04T00:34:46.447Z,31.50
2017-12-04T00:35:49.414Z,28.00
2017-12-04T00:36:52.473Z,22.00
2017-12-04T00:37:55.418Z,26.00
2017-12-04T00:38:59.106Z,29.00
2017-12-04T00:40:03.439Z,25.50
2017-12-04T00:41:06.463Z,23.50
2017-12-04T00:42:09.467Z,25.00
2017-12-04T00:43:12.528Z,24.00
2017-12-04T00:44:16.277Z,24.00
2017-12-04T00:45:19.413Z,35.00
2017-12-04T00:46:22.807Z,36.00
2017-12-04T00:47:25.767Z,24.50
2017-12-04T00:48:29.030Z,35.00
2017-12-04T00:49:32.212Z,28.00
2017-12-04T00:50:35.315Z,25.50
2017-12-04T00:51:38.697Z,27.00
2017-12-04T00:52:41.953Z,27.50
2017-12-04T00:53:44.996Z,27.00
2017-12-04T00:54:47.931Z,24.00
2017-12-04T00:55:50.876Z,27.50
2017-12-04T00:56:53.928Z,27.50
2017-12-04T00:57:56.875Z,20.50
2017-12-04T00:58:59.973Z,23.50
2017-12-04T01:00:03.175Z,29.50
2017-12-04T01:01:06.503Z,27.50
2017-12-04T01:02:09.934Z,26.00
2017-12-04T01:03:13.932Z,21.00
2017-12-04T01:04:17.460Z,25.00
2017-12-04T01:05:21.000Z,37.50
2017-12-04T01:06:24.068Z,28.50
2017-12-04T01:07:27.872Z,31.50
2017-12-04T01:08:31.667Z,30.50
2017-12-04T01:09:34.740Z,29.00
2017-12-04T01:10:38.244Z,32.00
2017-12-04T01:11:41.535Z,27.00
2017-12-04T01:12:45.327Z,22.50
2017-12-04T01:13:48.867Z,32.50
2017-12-04T01:14:52.773Z,22.00
2017-12-04T01:15:56.455Z,26.50
2017-12-04T01:16:59.780Z,33.00
2017-12-04T01:18:03.273Z,29.50
2017-12-04T01:19:06.719Z,31.00
2017-12-04T01:20:10.560Z,28.00
2017-12-04T01:21:14.041Z,31.00
2017-12-04T01:22:17.117Z,38.50
2017-12-04T01:23:21.250Z,40.00
2017-12-04T01:24:24.657Z,33.00
2017-12-04T01:25:28.091Z,28.50
2017-12-04T01:26:31.190Z,20.50
2017-12-04T01:27:44.740Z,31.00
2017-12-04T01:28:58.527Z,29.50
2017-12-04T01:34:34.004Z,26.50
2017-12-04T01:40:01.876Z,23.50
2017-12-04T01:42:29.099Z,19.00
2017-12-04T01:43:32.213Z,27.50
2017-12-04T01:44:35.547Z,22.00
2017-12-04T01:45:38.721Z,22.00
2017-12-04T01:46:41.780Z,24.00
2017-12-04T01:47:44.826Z,27.50
2017-12-04T01:48:48.389Z,21.50
2017-12-04T01:49:51.346Z,30.50
2017-12-04T01:50:54.369Z,32.00
2017-12-04T01:51:57.459Z,26.00
2017-12-04T01:53:00.477Z,30.00
2017-12-04T01:54:03.439Z,24.00
2017-12-04T01:55:06.719Z,23.50
2017-12-04T01:56:09.674Z,24.00
2017-12-04T01:57:12.679Z,38.00
2017-12-04T01:58:15.670Z,32.00
2017-12-04T01:59:18.634Z,30.50
2017-12-04T02:00:21.574Z,30.00
2017-12-04T02:01:24.788Z,24.50
2017-12-04T02:02:27.807Z,30.50
2017-12-04T02:03:30.779Z,24.00
2017-12-04T02:04:33.715Z,25.50
2017-12-04T02:05:36.708Z,32.00
2017-12-04T02:06:39.653Z,24.00
2017-12-04T02:07:43.289Z,29.50
2017-12-04T02:08:46.261Z,26.00
2017-12-04T02:09:49.295Z,30.50
2017-12-04T02:10:52.292Z,26.50
2017-12-04T02:11:55.291Z,27.00
2017-12-04T02:12:58.285Z,27.00
2017-12-04T02:14:01.537Z,21.50
2017-12-04T02:15:04.559Z,22.50
2017-12-04T02:16:07.566Z,27.00
2017-12-04T02:17:10.585Z,21.00
2017-12-04T02:18:13.523Z,25.50
2017-12-04T02:19:16.430Z,22.00
2017-12-04T02:20:19.691Z,29.00
2017-12-04T02:21:22.681Z,31.50
2017-12-04T02:22:25.683Z,34.50
2017-12-04T02:23:28.582Z,24.50
2017-12-04T02:24:31.594Z,28.50
2017-12-04T02:25:34.556Z,29.00
2017-12-04T02:26:37.940Z,22.00
2017-12-04T02:27:40.912Z,25.00
2017-12-04T02:28:43.892Z,24.00
2017-12-04T02:29:46.839Z,25.50
2017-12-04T02:30:49.795Z,19.50
2017-12-04T02:31:52.772Z,26.00
2017-12-04T02:32:56.005Z,27.50
2017-12-04T02:33:58.887Z,27.50
2017-12-04T02:35:01.759Z,23.00
2017-12-04T02:36:04.855Z,25.50
2017-12-04T02:37:07.925Z,21.00
2017-12-04T02:38:10.936Z,23.00
2017-12-04T02:39:14.317Z,27.00
2017-12-04T02:40:17.452Z,22.00
2017-12-04T02:41:20.512Z,23.00
2017-12-04T02:42:23.480Z,23.50
2017-12-04T02:43:26.578Z,27.00
2017-12-04T02:44:29.531Z,28.00
2017-12-04T02:45:32.846Z,20.00
2017-12-04T02:46:35.842Z,21.50
2017-12-04T02:47:38.956Z,27.50
2017-12-04T02:48:41.903Z,24.00
2017-12-04T02:49:44.931Z,29.50
2017-12-04T02:50:47.960Z,21.50
2017-12-04T02:51:51.233Z,22.00
2017-12-04T02:52:54.233Z,22.00
2017-12-04T02:53:57.359Z,22.50
2017-12-04T02:55:00.491Z,22.00
2017-12-04T02:56:03.673Z,30.00
2017-12-04T02:57:06.734Z,21.50
2017-12-04T02:58:10.133Z,23.00
2017-12-04T02:59:13.152Z,24.50
2017-12-04T03:00:16.130Z,31.00
2017-12-04T03:01:19.094Z,27.00
2017-12-04T03:02:22.047Z,24.00
2017-12-04T03:03:25.116Z,30.50
2017-12-04T03:04:28.420Z,22.50
2017-12-04T03:05:31.349Z,18.50
2017-12-04T03:06:34.349Z,25.50
2017-12-04T03:07:37.249Z,22.50
2017-12-04T03:08:40.164Z,25.50
2017-12-04T03:09:43.973Z,22.50
2017-12-04T03:10:47.166Z,27.00
2017-12-04T03:11:50.110Z,16.00
2017-12-04T03:12:53.077Z,23.00
2017-12-04T03:13:56.046Z,17.50
2017-12-04T03:14:59.068Z,23.00
2017-12-04T03:16:02.315Z,18.00
2017-12-04T03:17:05.400Z,23.00
2017-12-04T03:18:08.574Z,22.00
2017-12-04T03:19:11.703Z,22.00
2017-12-04T03:20:14.701Z,28.50
2017-12-04T03:21:17.602Z,24.00
2017-12-04T03:22:20.605Z,19.50
2017-12-04T03:23:24.004Z,17.00
2017-12-04T03:24:27.019Z,22.50
2017-12-04T03:25:29.960Z,22.50
2017-12-04T03:26:32.932Z,24.00
2017-12-04T03:27:35.940Z,19.50
2017-12-04T03:28:38.937Z,18.50
2017-12-04T03:29:42.212Z,21.00
2017-12-04T03:30:45.172Z,23.00
2017-12-04T03:31:48.151Z,18.50
2017-12-04T03:32:51.135Z,19.00
2017-12-04T03:33:54.111Z,18.00
2017-12-04T03:34:57.100Z,21.00
2017-12-04T03:36:00.365Z,19.00
2017-12-04T03:37:03.332Z,22.50
2017-12-04T03:38:06.353Z,20.50
2017-12-04T03:39:09.383Z,19.50
2017-12-04T03:40:12.423Z,19.00
2017-12-04T03:41:15.449Z,17.00
2017-12-04T03:42:18.732Z,16.50
2017-12-04T03:43:21.711Z,18.50
2017-12-04T03:44:24.676Z,18.00
2017-12-04T03:45:27.860Z,17.00
2017-12-04T03:46:30.892Z,17.00
2017-12-04T03:47:33.880Z,19.50
2017-12-04T03:48:36.854Z,19.00
2017-12-04T03:49:39.810Z,18.50
2017-12-04T03:50:42.781Z,24.50
2017-12-04T03:51:45.932Z,20.00
2017-12-04T03:52:48.889Z,18.00
2017-12-04T03:53:52.139Z,20.50
2017-12-04T03:54:55.105Z,15.50
2017-12-04T03:55:58.049Z,18.50
2017-12-04T03:57:01.101Z,21.00
2017-12-04T03:58:04.063Z,22.50
2017-12-04T03:59:07.030Z,21.50
2017-12-04T04:00:10.275Z,19.50
2017-12-04T04:01:13.261Z,20.50
2017-12-04T04:02:16.760Z,18.50
2017-12-04T04:03:19.752Z,16.00
2017-12-04T04:04:22.787Z,15.50
2017-12-04T04:05:25.748Z,24.50
2017-12-04T04:06:29.002Z,17.00
2017-12-04T04:07:31.975Z,21.00
2017-12-04T04:08:34.837Z,19.50
2017-12-04T04:09:37.735Z,24.50
2017-12-04T04:10:40.607Z,24.50
2017-12-04T04:11:43.458Z,28.00
2017-12-04T04:12:46.629Z,23.50
2017-12-04T04:13:49.523Z,13.00
2017-12-04T04:14:52.447Z,18.50
2017-12-04T04:15:55.428Z,19.50
2017-12-04T04:16:58.418Z,23.00
2017-12-04T04:18:01.392Z,15.00
2017-12-04T04:19:04.608Z,19.00
2017-12-04T04:20:07.544Z,22.00
2017-12-04T04:21:10.513Z,20.00
2017-12-04T04:22:13.455Z,19.50
2017-12-04T04:23:17.763Z,19.50
2017-12-04T04:24:20.741Z,18.50
2017-12-04T04:25:24.010Z,21.00
2017-12-04T04:26:27.020Z,20.00
2017-12-04T04:27:30.058Z,15.50
2017-12-04T04:28:33.099Z,14.00
2017-12-04T04:29:36.063Z,19.00
2017-12-04T04:30:39.176Z,23.00
2017-12-04T04:31:42.540Z,17.50
2017-12-04T04:32:45.522Z,22.50
2017-12-04T04:33:48.557Z,17.50
2017-12-04T04:34:51.543Z,19.50
2017-12-04T04:35:54.516Z,18.00
2017-12-04T04:36:57.476Z,16.00
2017-12-04T04:38:00.764Z,16.00
2017-12-04T04:39:03.768Z,16.00
2017-12-04T04:40:06.715Z,16.50
2017-12-04T04:41:09.704Z,19.00
2017-12-04T04:42:12.680Z,17.00
2017-12-04T04:43:15.649Z,17.50
2017-12-04T04:44:18.674Z,17.50
2017-12-04T04:45:21.657Z,20.00
2017-12-04T04:46:24.610Z,18.00
2017-12-04T04:47:27.621Z,19.00
2017-12-04T04:48:30.681Z,21.00
2017-12-04T04:49:33.931Z,18.00
2017-12-04T04:50:36.920Z,14.00
2017-12-04T04:51:40.073Z,14.00
2017-12-04T04:52:43.217Z,21.00
2017-12-04T04:53:46.354Z,21.50
2017-12-04T04:54:49.487Z,24.00
2017-12-04T04:55:52.843Z,22.50
2017-12-04T04:56:55.858Z,17.50
2017-12-04T04:57:58.844Z,20.00
2017-12-04T04:59:02.000Z,18.00
2017-12-04T05:00:04.962Z,15.00
2017-12-04T05:01:07.983Z,17.00
2017-12-04T05:02:10.971Z,19.50
2017-12-04T05:03:13.941Z,22.50
2017-12-04T05:04:16.964Z,21.00
2017-12-04T05:05:19.931Z,25.50
2017-12-04T05:06:22.892Z,16.50
2017-12-04T05:07:26.294Z,16.00
2017-12-04T05:08:29.336Z,23.00
2017-12-04T05:09:32.320Z,20.00
2017-12-04T05:10:35.308Z,15.00
2017-12-04T05:11:38.299Z,16.00
2017-12-04T05:12:41.279Z,21.00
2017-12-04T05:13:44.703Z,19.50
2017-12-04T05:14:47.643Z,20.00
2017-12-04T05:15:50.589Z,16.00
2017-12-04T05:16:53.543Z,17.50
2017-12-04T05:17:56.572Z,20.00
2017-12-04T05:18:59.589Z,15.50
2017-12-04T05:20:03.032Z,16.00
2017-12-04T05:21:06.112Z,16.00
2017-12-04T05:22:09.210Z,19.00
2017-12-04T05:23:12.191Z,21.00
2017-12-04T05:24:15.195Z,17.50
2017-12-04T05:25:18.203Z,20.50
2017-12-04T05:26:21.600Z,16.50
2017-12-04T05:27:24.568Z,18.00
2017-12-04T05:28:27.525Z,15.50
2017-12-04T05:29:30.463Z,14.00
2017-12-04T05:30:33.433Z,17.50
2017-12-04T05:31:36.513Z,16.00
2017-12-04T05:32:39.756Z,14.50
2017-12-04T05:33:42.720Z,14.50
2017-12-04T05:34:45.636Z,16.50
2017-12-04T05:35:48.729Z,16.50
2017-12-04T05:36:51.879Z,22.50
2017-12-04T05:37:54.884Z,19.00
2017-12-04T05:38:57.968Z,18.00
2017-12-04T05:40:00.945Z,14.00
2017-12-04T05:41:04.095Z,16.00
2017-12-04T05:42:07.199Z,19.00
2017-12-04T05:43:10.195Z,13.00
2017-12-04T05:44:13.291Z,20.00
2017-12-04T05:45:17.003Z,20.00
2017-12-04T05:46:20.147Z,22.50
2017-12-04T05:47:23.253Z,24.50
2017-12-04T05:48:26.349Z,19.00
2017-12-04T05:49:29.350Z,18.00
2017-12-04T05:50:32.342Z,19.50
2017-12-04T05:51:35.793Z,21.00
2017-12-04T05:52:38.844Z,19.50
2017-12-04T05:53:41.798Z,19.00
2017-12-04T05:54:44.749Z,15.00
2017-12-04T05:55:47.882Z,21.50
2017-12-04T05:56:50.926Z,21.50
2017-12-04T05:57:54.284Z,21.50
2017-12-04T05:58:57.349Z,19.00
2017-12-04T06:00:00.352Z,20.00
2017-12-04T06:01:03.275Z,28.00
2017-12-04T06:02:06.250Z,26.50
2017-12-04T06:03:09.867Z,23.50
2017-12-04T06:04:13.050Z,21.50
2017-12-04T06:05:15.924Z,23.50
2017-12-04T06:06:18.820Z,22.50
2017-12-04T06:07:21.840Z,25.50
2017-12-04T06:08:24.812Z,26.50
2017-12-04T06:09:27.794Z,22.00
2017-12-04T06:10:31.065Z,21.00
2017-12-04T06:11:34.034Z,22.00
2017-12-04T06:12:36.987Z,18.00
2017-12-04T06:13:39.928Z,23.00
2017-12-04T06:14:42.833Z,21.50
2017-12-04T06:15:45.812Z,20.50
2017-12-04T06:16:49.207Z,20.00
2017-12-04T06:17:52.176Z,24.50
2017-12-04T06:18:55.272Z,20.50
2017-12-04T06:19:58.298Z,21.50
2017-12-04T06:21:01.313Z,25.00
2017-12-04T06:22:04.306Z,24.50
2017-12-04T06:23:07.798Z,24.00
2017-12-04T06:24:11.770Z,29.00
2017-12-04T06:25:14.787Z,23.50
2017-12-04T06:26:17.854Z,23.00
2017-12-04T06:27:20.834Z,22.50
2017-12-04T06:28:23.799Z,25.50
2017-12-04T06:29:27.104Z,22.50
2017-12-04T06:30:30.299Z,24.00
2017-12-04T06:31:33.347Z,20.00
2017-12-04T06:32:37.011Z,27.00
2017-12-04T06:33:40.577Z,26.00
2017-12-04T06:34:43.572Z,26.00
2017-12-04T06:35:46.909Z,24.00
2017-12-04T06:36:49.908Z,26.50
2017-12-04T06:37:52.924Z,25.00
2017-12-04T06:38:56.889Z,18.50
2017-12-04T06:40:00.352Z,20.00
2017-12-04T06:41:03.349Z,15.50
2017-12-04T06:42:06.880Z,22.50
2017-12-04T06:43:09.975Z,19.50
2017-12-04T06:44:13.081Z,22.00
2017-12-04T06:45:16.051Z,21.50
2017-12-04T06:46:19.066Z,22.00
2017-12-04T06:47:22.199Z,20.50
2017-12-04T06:48:25.639Z,20.50
2017-12-04T06:49:28.795Z,22.50
2017-12-04T06:50:31.725Z,18.00
2017-12-04T06:51:34.698Z,18.50
2017-12-04T06:52:37.634Z,20.00
2017-12-04T06:53:40.623Z,21.50
2017-12-04T06:54:43.837Z,18.50
2017-12-04T06:55:46.818Z,20.00
2017-12-04T06:56:49.731Z,18.00
2017-12-04T06:57:52.686Z,23.00
2017-12-04T06:58:55.671Z,22.50
2017-12-04T06:59:58.687Z,17.00
2017-12-04T07:01:01.938Z,20.50
2017-12-04T07:02:04.880Z,22.50
2017-12-04T07:03:07.890Z,20.00
2017-12-04T07:04:10.871Z,34.00
2017-12-04T07:05:13.898Z,25.50
2017-12-04T07:06:17.018Z,26.50
2017-12-04T07:07:20.480Z,25.00
2017-12-04T07:08:23.511Z,25.00
2017-12-04T07:09:26.514Z,28.00
2017-12-04T07:10:29.776Z,23.00
2017-12-04T07:11:33.112Z,26.50
2017-12-04T07:12:36.302Z,25.00
2017-12-04T07:13:39.241Z,17.00
2017-12-04T07:14:42.212Z,19.50
2017-12-04T07:15:46.139Z,18.00
2017-12-04T07:16:49.735Z,22.50
2017-12-04T07:17:52.677Z,19.50
2017-12-04T07:18:56.124Z,19.00
2017-12-04T07:19:59.090Z,21.50
2017-12-04T07:21:02.180Z,23.00
2017-12-04T07:22:05.191Z,21.00
2017-12-04T07:23:08.262Z,21.50
2017-12-04T07:24:11.312Z,19.50
2017-12-04T07:25:14.607Z,23.50
2017-12-04T07:26:17.609Z,23.50
2017-12-04T07:27:20.635Z,23.00
2017-12-04T07:28:23.674Z,23.50
2017-12-04T07:29:26.771Z,24.50
2017-12-04T07:30:29.891Z,22.00
2017-12-04T07:31:33.290Z,20.00
2017-12-04T07:32:36.271Z,19.50
2017-12-04T07:33:39.365Z,22.50
2017-12-04T07:34:42.346Z,17.50
2017-12-04T07:35:45.357Z,21.50
2017-12-04T07:36:48.360Z,22.00
2017-12-04T07:37:51.741Z,19.00
2017-12-04T07:38:54.833Z,22.50
2017-12-04T07:39:57.853Z,22.50
2017-12-04T07:41:00.819Z,23.00
2017-12-04T07:42:03.849Z,28.00
2017-12-04T07:43:06.804Z,25.50
2017-12-04T07:44:10.204Z,21.50
2017-12-04T07:45:13.271Z,20.50
2017-12-04T07:46:16.333Z,23.50
2017-12-04T07:47:19.402Z,24.00
2017-12-04T07:48:22.401Z,21.50
2017-12-04T07:49:25.543Z,24.00
2017-12-04T07:50:28.917Z,21.50
2017-12-04T07:51:31.893Z,26.00
2017-12-04T07:52:34.869Z,24.50
2017-12-04T07:53:37.848Z,26.00
2017-12-04T07:54:40.833Z,23.50
2017-12-04T07:55:43.982Z,22.50
2017-12-04T07:56:47.427Z,17.00
2017-12-04T07:57:50.376Z,32.00
2017-12-04T07:58:53.511Z,36.50
2017-12-04T07:59:56.568Z,36.00
2017-12-04T08:00:59.618Z,35.50
2017-12-04T08:02:03.011Z,23.00
2017-12-04T08:03:06.090Z,28.00
2017-12-04T08:04:09.137Z,21.00
2017-12-04T08:05:12.463Z,15.00
2017-12-04T08:06:15.448Z,24.00
2017-12-04T08:07:18.746Z,20.50
2017-12-04T08:08:22.099Z,35.50
2017-12-04T08:09:25.228Z,23.50
2017-12-04T08:10:29.041Z,24.00
2017-12-04T08:11:32.036Z,25.50
2017-12-04T08:12:35.149Z,22.00
2017-12-04T08:13:38.260Z,21.00
2017-12-04T08:14:41.776Z,19.00
2017-12-04T08:15:44.809Z,23.00
2017-12-04T08:16:47.828Z,26.00
2017-12-04T08:17:50.768Z,21.50
2017-12-04T08:18:53.706Z,19.00
2017-12-04T08:19:56.776Z,27.50
2017-12-04T08:21:00.213Z,25.00
2017-12-04T08:22:03.228Z,20.00
2017-12-04T08:23:06.339Z,22.50
2017-12-04T08:24:09.440Z,22.00
2017-12-04T08:25:13.061Z,23.00
2017-12-04T08:26:16.091Z,22.00
2017-12-04T08:27:19.467Z,19.00
2017-12-04T08:28:22.622Z,24.50
2017-12-04T08:29:25.586Z,24.00
2017-12-04T08:30:28.750Z,23.00
2017-12-04T08:31:31.765Z,28.50
2017-12-04T08:32:34.781Z,26.00
2017-12-04T08:33:39.367Z,28.50
2017-12-04T08:34:42.524Z,24.50
2017-12-04T08:35:45.676Z,25.00
2017-12-04T08:36:48.708Z,28.00
2017-12-04T08:37:51.799Z,19.50
2017-12-04T08:38:54.825Z,25.00
2017-12-04T08:39:58.354Z,20.50
2017-12-04T08:41:01.357Z,20.00
2017-12-04T08:42:04.502Z,25.00
2017-12-04T08:43:07.485Z,21.50
2017-12-04T08:44:10.624Z,26.50
2017-12-04T08:45:13.654Z,18.50
2017-12-04T08:46:17.718Z,22.50
2017-12-04T08:47:20.851Z,24.50
2017-12-04T08:48:23.833Z,25.00
2017-12-04T08:49:26.955Z,22.00
2017-12-04T08:50:30.870Z,26.00
2017-12-04T08:51:33.861Z,30.50
2017-12-04T08:52:37.077Z,36.50
2017-12-04T08:53:40.096Z,26.50
2017-12-04T08:54:43.037Z,19.50
2017-12-04T08:55:46.124Z,31.00
2017-12-04T08:56:49.152Z,28.00
2017-12-04T08:57:52.177Z,24.00
2017-12-04T08:58:55.649Z,25.50
2017-12-04T08:59:58.939Z,22.50
2017-12-04T09:01:02.074Z,24.50
2017-12-04T09:02:05.101Z,26.00
2017-12-04T09:03:08.172Z,23.00
2017-12-04T09:04:11.192Z,23.00
2017-12-04T09:05:14.680Z,28.00
2017-12-04T09:06:17.835Z,26.00
2017-12-04T09:07:21.035Z,24.00
2017-12-04T09:08:24.168Z,26.50
2017-12-04T09:09:27.441Z,22.50
2017-12-04T09:10:30.398Z,22.00
2017-12-04T09:11:33.910Z,23.50
2017-12-04T09:12:37.119Z,25.00
2017-12-04T09:13:40.119Z,25.00
2017-12-04T09:14:43.148Z,31.50
2017-12-04T09:15:46.148Z,26.00
2017-12-04T09:16:49.164Z,22.50
2017-12-04T09:17:52.504Z,29.00
2017-12-04T09:18:55.520Z,27.50
2017-12-04T09:19:58.489Z,21.00
2017-12-04T09:21:01.543Z,27.00
2017-12-04T09:22:04.534Z,26.00
2017-12-04T09:23:07.642Z,23.50
2017-12-04T09:24:10.958Z,29.50
2017-12-04T09:25:13.924Z,25.50
2017-12-04T09:26:17.068Z,28.50
2017-12-04T09:27:20.117Z,30.50
2017-12-04T09:28:23.183Z,29.50
2017-12-04T09:29:26.367Z,34.50
2017-12-04T09:30:29.859Z,21.50
2017-12-04T09:31:32.863Z,28.00
2017-12-04T09:32:35.876Z,21.00
2017-12-04T09:33:38.899Z,23.00
2017-12-04T09:34:41.920Z,28.00
2017-12-04T09:35:45.424Z,30.00
2017-12-04T09:36:48.407Z,32.50
2017-12-04T09:37:51.421Z,32.00
2017-12-04T09:38:54.439Z,31.50
2017-12-04T09:39:57.476Z,31.00
2017-12-04T09:41:00.494Z,25.00
2017-12-04T09:42:03.926Z,27.00
2017-12-04T09:43:06.970Z,33.00
2017-12-04T09:44:10.040Z,35.50
2017-12-04T09:45:13.051Z,24.50
2017-12-04T09:46:16.567Z,37.50
2017-12-04T09:47:19.561Z,35.50
2017-12-04T09:48:22.953Z,32.50
2017-12-04T09:49:26.004Z,23.00
2017-12-04T09:50:29.043Z,27.00
2017-12-04T09:51:32.024Z,27.00
2017-12-04T09:52:35.038Z,26.50
2017-12-04T09:53:38.200Z,30.00
2017-12-04T09:54:41.627Z,24.00
2017-12-04T09:55:44.633Z,24.50
2017-12-04T09:56:47.684Z,31.50
2017-12-04T09:57:50.716Z,28.00
2017-12-04T09:58:53.748Z,33.50
2017-12-04T09:59:56.746Z,32.50
2017-12-04T10:00:59.746Z,25.00
2017-12-04T10:02:02.803Z,27.50
2017-12-04T10:03:05.820Z,30.00
2017-12-04T10:04:08.927Z,26.50
2017-12-04T10:05:11.884Z,29.50
2017-12-04T10:06:15.323Z,26.00
2017-12-04T10:07:18.321Z,26.50
2017-12-04T10:08:21.317Z,29.50
2017-12-04T10:10:31.560Z,32.00
2017-12-04T21:11:21.921Z,44.00
2017-12-04T21:12:24.910Z,37.60
2017-12-04T21:13:28.956Z,38.20
2017-12-04T21:14:32.331Z,33.00
2017-12-04T21:15:35.415Z,32.20
2017-12-04T21:16:38.456Z,31.00
2017-12-04T21:17:41.570Z,30.60
2017-12-04T21:18:44.828Z,29.40
2017-12-04T21:19:48.140Z,28.75
2017-12-04T21:20:51.799Z,31.00
2017-12-04T21:21:54.749Z,27.40
2017-12-04T21:22:57.720Z,29.50
2017-12-04T21:24:00.679Z,29.80
2017-12-04T21:25:03.855Z,27.20
2017-12-04T21:26:06.810Z,30.00
2017-12-04T21:27:09.998Z,30.00
2017-12-04T21:28:13.200Z,29.40
2017-12-04T21:29:16.157Z,29.00
2017-12-04T21:30:19.176Z,27.40
2017-12-04T21:31:22.220Z,29.80
2017-12-04T21:32:25.375Z,28.60
2017-12-04T21:33:28.867Z,31.00
2017-12-04T21:34:32.583Z,24.40
2017-12-04T21:35:35.644Z,27.00
2017-12-04T21:36:38.694Z,26.00
2017-12-04T21:37:41.700Z,26.60
2017-12-04T21:38:45.582Z,27.00
2017-12-04T21:39:49.000Z,24.00
2017-12-04T21:40:51.965Z,23.00
2017-12-04T21:41:55.040Z,28.20
2017-12-04T21:42:58.008Z,29.00
2017-12-04T21:44:00.980Z,30.00
2017-12-04T21:45:03.980Z,28.60
2017-12-04T21:46:07.210Z,28.60
2017-12-04T21:47:10.139Z,26.00
2017-12-04T21:48:13.060Z,29.00
2017-12-04T21:49:16.003Z,26.60
2017-12-04T21:50:18.901Z,30.00
2017-12-04T21:51:21.965Z,24.00
2017-12-04T21:52:25.274Z,29.80
2017-12-04T21:53:28.309Z,31.00
2017-12-04T21:54:31.328Z,28.50
2017-12-04T21:55:34.399Z,30.60
2017-12-04T21:56:37.575Z,30.00
2017-12-04T21:57:40.583Z,29.00
2017-12-04T21:58:43.655Z,29.50
2017-12-04T21:59:46.708Z,27.40
2017-12-04T22:00:50.514Z,30.00
2017-12-04T22:01:53.564Z,33.00
2017-12-04T22:02:56.569Z,31.75
2017-12-04T22:03:59.534Z,27.20
2017-12-04T22:05:02.855Z,30.80
2017-12-04T22:06:05.786Z,29.75
2017-12-04T22:07:09.112Z,28.00
2017-12-04T22:08:12.097Z,29.40
2017-12-04T22:09:15.190Z,28.60
2017-12-04T22:10:18.222Z,31.40
2017-12-04T22:11:21.456Z,30.00
2017-12-04T22:12:24.478Z,30.00
2017-12-04T22:13:27.564Z,32.00
2017-12-04T22:14:30.576Z,28.60
2017-12-04T22:15:33.591Z,30.75
2017-12-04T22:16:36.625Z,32.40
2017-12-04T22:17:39.924Z,28.50
2017-12-04T22:18:43.003Z,30.00
2017-12-04T22:19:46.057Z,27.00
2017-12-04T22:20:49.049Z,27.20
2017-12-04T22:21:52.155Z,30.50
2017-12-04T22:22:55.296Z,30.00
2017-12-04T22:23:58.687Z,27.80
2017-12-04T22:25:02.141Z,27.00
2017-12-04T22:26:05.129Z,28.60
2017-12-04T22:27:08.189Z,30.60
2017-12-04T22:29:28.554Z,39.00
2017-12-04T22:30:31.508Z,37.40
2017-12-04T22:31:34.554Z,35.40
2017-12-04T22:32:38.115Z,37.00
2017-12-04T22:33:41.349Z,35.00
2017-12-04T22:34:44.374Z,33.25
2017-12-04T22:35:47.713Z,35.80
2017-12-04T22:36:50.743Z,34.75
2017-12-04T22:37:53.801Z,34.80
2017-12-04T22:38:56.918Z,30.40
2017-12-04T22:40:00.052Z,35.00
2017-12-04T22:41:03.026Z,38.00
2017-12-04T22:42:06.551Z,35.40
2017-12-04T22:43:09.596Z,36.40
2017-12-04T22:44:12.620Z,34.40
2017-12-04T22:45:16.774Z,33.40
2017-12-04T22:46:20.137Z,35.20
2017-12-04T22:47:23.226Z,34.00
2017-12-04T22:48:26.460Z,36.00
2017-12-04T22:49:29.412Z,36.20
2017-12-04T22:50:32.301Z,34.00
2017-12-04T22:51:35.217Z,34.00
2017-12-04T22:52:40.871Z,31.80
2017-12-04T22:53:43.870Z,36.60
2017-12-04T22:54:47.158Z,34.25
2017-12-04T22:55:51.710Z,44.00
2017-12-04T22:56:55.788Z,45.50
2017-12-04T22:57:58.918Z,42.00
2017-12-04T22:59:01.936Z,42.40
2017-12-04T23:00:04.961Z,51.60
2017-12-04T23:01:08.380Z,51.60
2017-12-04T23:02:11.458Z,44.00
2017-12-04T23:03:14.659Z,41.20
2017-12-04T23:04:17.631Z,42.00
2017-12-04T23:05:20.635Z,44.00
2017-12-04T23:06:23.811Z,55.00
2017-12-04T23:07:26.904Z,52.50
2017-12-04T23:08:30.286Z,51.60
2017-12-04T23:09:34.367Z,48.60
2017-12-04T23:10:37.724Z,50.00
2017-12-04T23:11:42.228Z,48.50
2017-12-04T23:12:45.648Z,51.40
2017-12-04T23:13:49.123Z,48.20
2017-12-04T23:14:52.280Z,41.60
2017-12-04T23:15:55.480Z,41.40
2017-12-04T23:16:58.510Z,49.25
2017-12-04T23:18:01.767Z,48.00
2017-12-04T23:19:05.144Z,37.60
2017-12-04T23:20:08.210Z,37.40
2017-12-04T23:21:11.200Z,42.00
2017-12-04T23:22:14.424Z,39.60
2017-12-04T23:23:17.480Z,41.20
2017-12-04T23:24:20.696Z,37.00
2017-12-04T23:25:23.979Z,41.20
2017-12-04T23:26:27.296Z,62.80
2017-12-04T23:27:30.560Z,40.00
2017-12-04T23:28:33.807Z,56.20
2017-12-04T23:29:37.005Z,37.00
2017-12-04T23:30:40.050Z,39.40
2017-12-04T23:31:43.369Z,42.60
2017-12-04T23:32:46.287Z,62.50
2017-12-04T23:33:49.288Z,56.75
2017-12-04T23:34:52.344Z,46.60
2017-12-04T23:35:56.144Z,49.00
2017-12-04T23:36:59.608Z,47.25
2017-12-04T23:38:02.948Z,42.00
2017-12-04T23:39:07.426Z,47.60
2017-12-04T23:40:10.744Z,47.80
2017-12-04T23:41:13.744Z,59.60
2017-12-04T23:42:16.888Z,54.00
2017-12-04T23:43:19.920Z,36.00
2017-12-04T23:44:25.356Z,35.00
2017-12-04T23:45:28.349Z,35.00
2017-12-04T23:46:31.328Z,36.00
2017-12-04T23:47:34.356Z,35.00
2017-12-04T23:48:37.900Z,36.80
2017-12-04T23:49:42.060Z,39.25
2017-12-04T23:50:45.390Z,40.00
2017-12-04T23:51:48.509Z,38.00
2017-12-04T23:52:51.489Z,40.00
2017-12-04T23:53:54.589Z,36.60
2017-12-04T23:54:57.894Z,34.50
2017-12-04T23:56:00.910Z,39.60
2017-12-04T23:57:04.422Z,35.00
2017-12-04T23:58:07.468Z,35.00
2017-12-04T23:59:10.400Z,39.00
